sensor_id;sensor_type;location;lat;lon;timestamp;temperature;humidity
13251;DHT22;6692;50.710;7.180;2023-06-14T00:01:29;18.10;99.90
13251;DHT22;6692;50.710;7.180;2023-06-14T00:03:30;18.10;99.90
13251;DHT22;6692;50.710;7.180;2023-06-14T00:05:31;18.10;99.90
13251;DHT22;6692;50.710;7.180;2023-06-14T00:07:34;18.10;99.90
13251;DHT22;6692;50.710;7.180;2023-06-14T00:09:35;18.10;99.90
13251;DHT22;6692;50.710;7.180;2023-06-14T00:11:36;18.00;99.90
13251;DHT22;6692;50.710;7.180;2023-06-14T00:13:37;18.10;99.90
13251;DHT22;6692;50.710;7.180;2023-06-14T00:15:37;18.10;99.90
13251;DHT22;6692;50.710;7.180;2023-06-14T00:17:38;18.10;99.90
13251;DHT22;6692;50.710;7.180;2023-06-14T00:19:39;18.10;99.90
13251;DHT22;6692;50.710;7.180;2023-06-14T00:21:39;18.10;99.90
13251;DHT22;6692;50.710;7.180;2023-06-14T00:23:41;18.10;99.90
13251;DHT22;6692;50.710;7.180;2023-06-14T00:25:42;18.10;99.90
13251;DHT22;6692;50.710;7.180;2023-06-14T00:27:43;18.10;99.90
13251;DHT22;6692;50.710;7.180;2023-06-14T00:29:44;18.10;99.90
13251;DHT22;6692;50.710;7.180;2023-06-14T00:31:45;18.10;99.90
13251;DHT22;6692;50.710;7.180;2023-06-14T00:33:45;18.10;99.90
13251;DHT22;6692;50.710;7.180;2023-06-14T00:35:46;18.20;99.90
13251;DHT22;6692;50.710;7.180;2023-06-14T00:37:47;18.20;99.90
13251;DHT22;6692;50.710;7.180;2023-06-14T00:39:48;18.20;99.90
13251;DHT22;6692;50.710;7.180;2023-06-14T00:41:50;18.20;99.90
13251;DHT22;6692;50.710;7.180;2023-06-14T00:43:51;18.30;99.90
13251;DHT22;6692;50.710;7.180;2023-06-14T00:45:52;18.20;99.90
13251;DHT22;6692;50.710;7.180;2023-06-14T00:47:53;18.30;99.90
13251;DHT22;6692;50.710;7.180;2023-06-14T00:49:53;18.30;99.90
13251;DHT22;6692;50.710;7.180;2023-06-14T00:51:54;18.30;99.90
13251;DHT22;6692;50.710;7.180;2023-06-14T00:53:55;18.30;99.90
13251;DHT22;6692;50.710;7.180;2023-06-14T00:55:55;18.30;99.90
13251;DHT22;6692;50.710;7.180;2023-06-14T00:57:56;18.30;99.90
13251;DHT22;6692;50.710;7.180;2023-06-14T00:59:57;18.30;99.90
13251;DHT22;6692;50.710;7.180;2023-06-14T01:01:58;18.30;99.90
13251;DHT22;6692;50.710;7.180;2023-06-14T01:03:59;18.30;99.90
13251;DHT22;6692;50.710;7.180;2023-06-14T01:06:09;18.30;99.90
13251;DHT22;6692;50.710;7.180;2023-06-14T01:08:18;18.30;99.90
13251;DHT22;6692;50.710;7.180;2023-06-14T01:10:32;18.30;99.90
13251;DHT22;6692;50.710;7.180;2023-06-14T01:12:37;18.30;99.90
13251;DHT22;6692;50.710;7.180;2023-06-14T01:14:32;18.30;99.90
13251;DHT22;6692;50.710;7.180;2023-06-14T01:16:32;18.20;99.90
13251;DHT22;6692;50.710;7.180;2023-06-14T01:18:34;18.20;99.90
13251;DHT22;6692;50.710;7.180;2023-06-14T01:20:36;18.20;99.90
13251;DHT22;6692;50.710;7.180;2023-06-14T01:22:37;18.20;99.90
13251;DHT22;6692;50.710;7.180;2023-06-14T01:24:38;18.10;99.90
13251;DHT22;6692;50.710;7.180;2023-06-14T01:26:39;18.20;99.90
13251;DHT22;6692;50.710;7.180;2023-06-14T01:28:39;18.10;99.90
13251;DHT22;6692;50.710;7.180;2023-06-14T01:30:41;18.10;99.90
13251;DHT22;6692;50.710;7.180;2023-06-14T01:32:44;18.10;99.90
13251;DHT22;6692;50.710;7.180;2023-06-14T01:34:44;18.10;99.90
13251;DHT22;6692;50.710;7.180;2023-06-14T01:36:45;18.10;99.90
13251;DHT22;6692;50.710;7.180;2023-06-14T01:38:46;18.00;99.90
13251;DHT22;6692;50.710;7.180;2023-06-14T01:40:47;18.00;99.90
13251;DHT22;6692;50.710;7.180;2023-06-14T01:42:49;18.00;99.90
13251;DHT22;6692;50.710;7.180;2023-06-14T01:44:50;18.00;99.90
13251;DHT22;6692;50.710;7.180;2023-06-14T01:46:51;18.00;99.90
13251;DHT22;6692;50.710;7.180;2023-06-14T01:48:52;18.00;99.90
13251;DHT22;6692;50.710;7.180;2023-06-14T01:50:53;17.90;99.90
13251;DHT22;6692;50.710;7.180;2023-06-14T01:52:54;17.90;99.90
13251;DHT22;6692;50.710;7.180;2023-06-14T01:54:55;17.90;99.90
13251;DHT22;6692;50.710;7.180;2023-06-14T01:56:57;17.90;99.90
13251;DHT22;6692;50.710;7.180;2023-06-14T01:58:57;17.90;99.90
13251;DHT22;6692;50.710;7.180;2023-06-14T02:00:58;17.90;99.90
13251;DHT22;6692;50.710;7.180;2023-06-14T02:02:59;17.90;99.90
13251;DHT22;6692;50.710;7.180;2023-06-14T02:04:59;17.90;99.90
13251;DHT22;6692;50.710;7.180;2023-06-14T02:07:01;17.90;99.90
13251;DHT22;6692;50.710;7.180;2023-06-14T02:09:03;17.80;99.90
13251;DHT22;6692;50.710;7.180;2023-06-14T02:11:03;17.90;99.90
13251;DHT22;6692;50.710;7.180;2023-06-14T02:13:04;17.80;99.90
13251;DHT22;6692;50.710;7.180;2023-06-14T02:15:05;17.80;99.90
13251;DHT22;6692;50.710;7.180;2023-06-14T02:17:06;17.80;99.90
13251;DHT22;6692;50.710;7.180;2023-06-14T02:19:07;17.80;99.90
13251;DHT22;6692;50.710;7.180;2023-06-14T02:21:08;17.80;99.90
13251;DHT22;6692;50.710;7.180;2023-06-14T02:23:08;17.80;99.90
13251;DHT22;6692;50.710;7.180;2023-06-14T02:25:09;17.70;99.90
13251;DHT22;6692;50.710;7.180;2023-06-14T02:27:10;17.70;99.90
13251;DHT22;6692;50.710;7.180;2023-06-14T02:29:11;17.70;99.90
13251;DHT22;6692;50.710;7.180;2023-06-14T02:31:11;17.60;99.90
13251;DHT22;6692;50.710;7.180;2023-06-14T02:33:12;17.60;99.90
13251;DHT22;6692;50.710;7.180;2023-06-14T02:35:14;17.60;99.90
13251;DHT22;6692;50.710;7.180;2023-06-14T02:37:14;17.60;99.90
13251;DHT22;6692;50.710;7.180;2023-06-14T02:39:16;17.60;99.90
13251;DHT22;6692;50.710;7.180;2023-06-14T02:41:18;17.60;99.90
13251;DHT22;6692;50.710;7.180;2023-06-14T02:43:19;17.60;99.90
13251;DHT22;6692;50.710;7.180;2023-06-14T02:45:19;17.60;99.90
13251;DHT22;6692;50.710;7.180;2023-06-14T02:47:20;17.50;99.90
13251;DHT22;6692;50.710;7.180;2023-06-14T02:49:21;17.50;99.90
13251;DHT22;6692;50.710;7.180;2023-06-14T02:51:22;17.50;99.90
13251;DHT22;6692;50.710;7.180;2023-06-14T02:53:22;17.50;99.90
13251;DHT22;6692;50.710;7.180;2023-06-14T02:55:23;17.50;99.90
13251;DHT22;6692;50.710;7.180;2023-06-14T02:57:24;17.50;99.90
13251;DHT22;6692;50.710;7.180;2023-06-14T02:59:25;17.50;99.90
13251;DHT22;6692;50.710;7.180;2023-06-14T03:01:27;17.50;99.90
13251;DHT22;6692;50.710;7.180;2023-06-14T03:03:26;17.50;99.90
13251;DHT22;6692;50.710;7.180;2023-06-14T03:05:27;17.50;99.90
13251;DHT22;6692;50.710;7.180;2023-06-14T03:07:28;17.40;99.90
13251;DHT22;6692;50.710;7.180;2023-06-14T03:09:28;17.40;99.90
13251;DHT22;6692;50.710;7.180;2023-06-14T03:11:30;17.40;99.90
13251;DHT22;6692;50.710;7.180;2023-06-14T03:13:30;17.40;99.90
13251;DHT22;6692;50.710;7.180;2023-06-14T03:15:31;17.40;99.90
13251;DHT22;6692;50.710;7.180;2023-06-14T03:17:32;17.40;99.90
13251;DHT22;6692;50.710;7.180;2023-06-14T03:19:33;17.40;99.90
13251;DHT22;6692;50.710;7.180;2023-06-14T03:21:34;17.40;99.90
13251;DHT22;6692;50.710;7.180;2023-06-14T03:23:35;17.40;99.90
13251;DHT22;6692;50.710;7.180;2023-06-14T03:25:36;17.40;99.90
13251;DHT22;6692;50.710;7.180;2023-06-14T03:27:37;17.30;99.90
13251;DHT22;6692;50.710;7.180;2023-06-14T03:29:38;17.30;99.90
13251;DHT22;6692;50.710;7.180;2023-06-14T03:31:41;17.30;99.90
13251;DHT22;6692;50.710;7.180;2023-06-14T03:33:40;17.30;99.90
13251;DHT22;6692;50.710;7.180;2023-06-14T03:35:41;17.30;99.90
13251;DHT22;6692;50.710;7.180;2023-06-14T03:37:43;17.30;99.90
13251;DHT22;6692;50.710;7.180;2023-06-14T03:39:44;17.30;99.90
13251;DHT22;6692;50.710;7.180;2023-06-14T03:41:45;17.30;99.90
13251;DHT22;6692;50.710;7.180;2023-06-14T03:43:46;17.30;99.90
13251;DHT22;6692;50.710;7.180;2023-06-14T03:45:46;17.30;99.90
13251;DHT22;6692;50.710;7.180;2023-06-14T03:47:48;17.20;99.90
13251;DHT22;6692;50.710;7.180;2023-06-14T03:49:48;17.20;99.90
13251;DHT22;6692;50.710;7.180;2023-06-14T03:51:50;17.20;99.90
13251;DHT22;6692;50.710;7.180;2023-06-14T03:53:51;17.10;99.90
13251;DHT22;6692;50.710;7.180;2023-06-14T03:55:52;17.20;99.90
13251;DHT22;6692;50.710;7.180;2023-06-14T03:57:53;17.10;99.90
13251;DHT22;6692;50.710;7.180;2023-06-14T03:59:54;17.10;99.90
13251;DHT22;6692;50.710;7.180;2023-06-14T04:01:54;17.10;99.90
13251;DHT22;6692;50.710;7.180;2023-06-14T04:03:56;17.10;99.90
13251;DHT22;6692;50.710;7.180;2023-06-14T04:05:56;17.10;99.90
13251;DHT22;6692;50.710;7.180;2023-06-14T04:07:56;17.10;99.90
13251;DHT22;6692;50.710;7.180;2023-06-14T04:09:57;17.10;99.90
13251;DHT22;6692;50.710;7.180;2023-06-14T04:11:58;17.10;99.90
13251;DHT22;6692;50.710;7.180;2023-06-14T04:13:59;17.10;99.90
13251;DHT22;6692;50.710;7.180;2023-06-14T04:15:59;17.10;99.90
13251;DHT22;6692;50.710;7.180;2023-06-14T04:18:01;17.10;99.90
13251;DHT22;6692;50.710;7.180;2023-06-14T04:20:03;17.10;99.90
13251;DHT22;6692;50.710;7.180;2023-06-14T04:22:04;17.10;99.90
13251;DHT22;6692;50.710;7.180;2023-06-14T04:24:06;17.10;99.90
13251;DHT22;6692;50.710;7.180;2023-06-14T04:26:06;17.10;99.90
13251;DHT22;6692;50.710;7.180;2023-06-14T04:28:07;17.10;99.90
13251;DHT22;6692;50.710;7.180;2023-06-14T04:30:09;17.10;99.90
13251;DHT22;6692;50.710;7.180;2023-06-14T04:32:10;17.10;99.90
13251;DHT22;6692;50.710;7.180;2023-06-14T04:34:11;17.10;99.90
13251;DHT22;6692;50.710;7.180;2023-06-14T04:36:13;17.20;99.90
13251;DHT22;6692;50.710;7.180;2023-06-14T04:38:14;17.20;99.90
13251;DHT22;6692;50.710;7.180;2023-06-14T04:40:15;17.20;99.90
13251;DHT22;6692;50.710;7.180;2023-06-14T04:42:16;17.20;99.90
13251;DHT22;6692;50.710;7.180;2023-06-14T04:44:16;17.20;99.90
13251;DHT22;6692;50.710;7.180;2023-06-14T04:46:17;17.30;99.90
13251;DHT22;6692;50.710;7.180;2023-06-14T04:48:18;17.30;99.90
13251;DHT22;6692;50.710;7.180;2023-06-14T04:50:18;17.30;99.90
13251;DHT22;6692;50.710;7.180;2023-06-14T04:52:20;17.30;99.90
13251;DHT22;6692;50.710;7.180;2023-06-14T04:54:21;17.40;99.90
13251;DHT22;6692;50.710;7.180;2023-06-14T04:56:24;17.40;99.90
13251;DHT22;6692;50.710;7.180;2023-06-14T04:58:26;17.40;99.90
13251;DHT22;6692;50.710;7.180;2023-06-14T05:00:26;17.40;99.90
13251;DHT22;6692;50.710;7.180;2023-06-14T05:02:27;17.50;99.90
13251;DHT22;6692;50.710;7.180;2023-06-14T05:04:28;17.50;99.90
13251;DHT22;6692;50.710;7.180;2023-06-14T05:06:29;17.60;99.90
13251;DHT22;6692;50.710;7.180;2023-06-14T05:08:29;17.60;99.90
13251;DHT22;6692;50.710;7.180;2023-06-14T05:10:31;17.60;99.90
13251;DHT22;6692;50.710;7.180;2023-06-14T05:12:31;17.60;99.90
13251;DHT22;6692;50.710;7.180;2023-06-14T05:14:32;17.70;99.90
13251;DHT22;6692;50.710;7.180;2023-06-14T05:16:33;17.70;99.90
13251;DHT22;6692;50.710;7.180;2023-06-14T05:18:34;17.80;99.90
13251;DHT22;6692;50.710;7.180;2023-06-14T05:20:35;17.70;99.90
13251;DHT22;6692;50.710;7.180;2023-06-14T05:22:36;17.80;99.90
13251;DHT22;6692;50.710;7.180;2023-06-14T05:24:36;17.80;99.90
13251;DHT22;6692;50.710;7.180;2023-06-14T05:26:37;17.80;99.90
13251;DHT22;6692;50.710;7.180;2023-06-14T05:28:38;17.80;99.90
13251;DHT22;6692;50.710;7.180;2023-06-14T05:30:39;17.90;99.90
13251;DHT22;6692;50.710;7.180;2023-06-14T05:32:40;17.90;99.90
13251;DHT22;6692;50.710;7.180;2023-06-14T05:34:41;17.90;99.90
13251;DHT22;6692;50.710;7.180;2023-06-14T05:36:41;17.90;99.90
13251;DHT22;6692;50.710;7.180;2023-06-14T05:38:43;17.80;99.90
13251;DHT22;6692;50.710;7.180;2023-06-14T05:40:44;17.90;99.90
13251;DHT22;6692;50.710;7.180;2023-06-14T05:42:45;17.90;99.90
13251;DHT22;6692;50.710;7.180;2023-06-14T05:44:46;17.90;99.90
13251;DHT22;6692;50.710;7.180;2023-06-14T05:46:46;17.90;99.90
13251;DHT22;6692;50.710;7.180;2023-06-14T05:48:48;17.90;99.90
13251;DHT22;6692;50.710;7.180;2023-06-14T05:50:49;18.00;99.90
13251;DHT22;6692;50.710;7.180;2023-06-14T05:52:49;17.90;99.90
13251;DHT22;6692;50.710;7.180;2023-06-14T05:54:50;18.00;99.90
13251;DHT22;6692;50.710;7.180;2023-06-14T05:56:51;18.00;99.90
13251;DHT22;6692;50.710;7.180;2023-06-14T05:58:51;18.00;99.90
13251;DHT22;6692;50.710;7.180;2023-06-14T06:00:52;18.00;99.90
13251;DHT22;6692;50.710;7.180;2023-06-14T06:02:53;18.00;99.90
13251;DHT22;6692;50.710;7.180;2023-06-14T06:04:54;18.10;99.90
13251;DHT22;6692;50.710;7.180;2023-06-14T06:06:54;18.20;99.90
13251;DHT22;6692;50.710;7.180;2023-06-14T06:08:55;18.20;99.90
13251;DHT22;6692;50.710;7.180;2023-06-14T06:10:56;18.30;99.90
13251;DHT22;6692;50.710;7.180;2023-06-14T06:12:56;18.30;99.90
13251;DHT22;6692;50.710;7.180;2023-06-14T06:14:57;18.40;99.90
13251;DHT22;6692;50.710;7.180;2023-06-14T06:16:58;18.40;99.90
13251;DHT22;6692;50.710;7.180;2023-06-14T06:18:59;18.50;99.90
13251;DHT22;6692;50.710;7.180;2023-06-14T06:21:00;18.60;99.90
13251;DHT22;6692;50.710;7.180;2023-06-14T06:23:01;18.60;99.90
13251;DHT22;6692;50.710;7.180;2023-06-14T06:25:01;18.60;99.90
13251;DHT22;6692;50.710;7.180;2023-06-14T06:27:02;18.70;99.90
13251;DHT22;6692;50.710;7.180;2023-06-14T06:29:03;18.70;99.90
13251;DHT22;6692;50.710;7.180;2023-06-14T06:31:05;18.80;99.90
13251;DHT22;6692;50.710;7.180;2023-06-14T06:33:05;18.80;99.90
13251;DHT22;6692;50.710;7.180;2023-06-14T06:35:07;18.90;99.90
13251;DHT22;6692;50.710;7.180;2023-06-14T06:37:08;19.00;99.90
13251;DHT22;6692;50.710;7.180;2023-06-14T06:39:09;18.90;99.90
13251;DHT22;6692;50.710;7.180;2023-06-14T06:41:10;19.00;99.90
13251;DHT22;6692;50.710;7.180;2023-06-14T06:43:10;19.10;99.90
13251;DHT22;6692;50.710;7.180;2023-06-14T06:45:11;19.10;99.90
13251;DHT22;6692;50.710;7.180;2023-06-14T06:47:12;19.20;99.90
13251;DHT22;6692;50.710;7.180;2023-06-14T06:49:13;19.30;99.90
13251;DHT22;6692;50.710;7.180;2023-06-14T06:51:14;19.20;99.90
13251;DHT22;6692;50.710;7.180;2023-06-14T06:53:15;19.30;99.90
13251;DHT22;6692;50.710;7.180;2023-06-14T06:55:16;19.30;99.90
13251;DHT22;6692;50.710;7.180;2023-06-14T06:57:17;19.30;99.90
13251;DHT22;6692;50.710;7.180;2023-06-14T06:59:17;19.40;99.90
13251;DHT22;6692;50.710;7.180;2023-06-14T07:01:18;19.40;99.90
13251;DHT22;6692;50.710;7.180;2023-06-14T07:03:19;19.50;99.90
13251;DHT22;6692;50.710;7.180;2023-06-14T07:05:20;19.60;99.90
13251;DHT22;6692;50.710;7.180;2023-06-14T07:07:21;19.50;99.90
13251;DHT22;6692;50.710;7.180;2023-06-14T07:09:23;19.60;99.90
13251;DHT22;6692;50.710;7.180;2023-06-14T07:11:23;19.60;99.90
13251;DHT22;6692;50.710;7.180;2023-06-14T07:13:24;19.60;99.90
13251;DHT22;6692;50.710;7.180;2023-06-14T07:15:25;19.70;99.90
13251;DHT22;6692;50.710;7.180;2023-06-14T07:17:25;19.70;99.90
13251;DHT22;6692;50.710;7.180;2023-06-14T07:19:26;19.80;99.90
13251;DHT22;6692;50.710;7.180;2023-06-14T07:21:27;19.80;99.90
13251;DHT22;6692;50.710;7.180;2023-06-14T07:23:27;19.80;99.90
13251;DHT22;6692;50.710;7.180;2023-06-14T07:25:28;19.80;99.90
13251;DHT22;6692;50.710;7.180;2023-06-14T07:27:29;19.80;99.90
13251;DHT22;6692;50.710;7.180;2023-06-14T07:29:30;19.90;99.90
13251;DHT22;6692;50.710;7.180;2023-06-14T07:31:30;19.90;99.90
13251;DHT22;6692;50.710;7.180;2023-06-14T07:33:31;20.00;99.90
13251;DHT22;6692;50.710;7.180;2023-06-14T07:35:32;20.00;99.90
13251;DHT22;6692;50.710;7.180;2023-06-14T07:37:32;20.00;99.90
13251;DHT22;6692;50.710;7.180;2023-06-14T07:39:33;20.00;99.90
13251;DHT22;6692;50.710;7.180;2023-06-14T07:41:34;20.10;99.90
13251;DHT22;6692;50.710;7.180;2023-06-14T07:43:35;20.00;99.90
13251;DHT22;6692;50.710;7.180;2023-06-14T07:45:37;20.10;99.90
13251;DHT22;6692;50.710;7.180;2023-06-14T07:47:37;20.10;99.90
13251;DHT22;6692;50.710;7.180;2023-06-14T07:49:38;20.10;99.90
13251;DHT22;6692;50.710;7.180;2023-06-14T07:51:39;20.10;99.90
13251;DHT22;6692;50.710;7.180;2023-06-14T07:53:40;20.20;99.90
13251;DHT22;6692;50.710;7.180;2023-06-14T07:55:41;20.20;99.90
13251;DHT22;6692;50.710;7.180;2023-06-14T07:57:42;20.30;99.90
13251;DHT22;6692;50.710;7.180;2023-06-14T07:59:43;20.30;99.90
13251;DHT22;6692;50.710;7.180;2023-06-14T08:01:44;20.30;99.90
13251;DHT22;6692;50.710;7.180;2023-06-14T08:03:45;20.30;99.90
13251;DHT22;6692;50.710;7.180;2023-06-14T08:05:45;20.30;99.90
13251;DHT22;6692;50.710;7.180;2023-06-14T08:07:46;20.40;99.90
13251;DHT22;6692;50.710;7.180;2023-06-14T08:09:47;20.40;99.90
13251;DHT22;6692;50.710;7.180;2023-06-14T08:11:47;20.40;99.90
13251;DHT22;6692;50.710;7.180;2023-06-14T08:13:48;20.40;99.90
13251;DHT22;6692;50.710;7.180;2023-06-14T08:15:49;20.50;99.90
13251;DHT22;6692;50.710;7.180;2023-06-14T08:17:50;20.50;99.90
13251;DHT22;6692;50.710;7.180;2023-06-14T08:19:52;20.50;99.90
13251;DHT22;6692;50.710;7.180;2023-06-14T08:21:53;20.50;99.90
13251;DHT22;6692;50.710;7.180;2023-06-14T08:23:55;20.50;99.90
13251;DHT22;6692;50.710;7.180;2023-06-14T08:25:56;20.60;99.90
13251;DHT22;6692;50.710;7.180;2023-06-14T08:27:58;20.60;99.90
13251;DHT22;6692;50.710;7.180;2023-06-14T08:29:58;20.60;99.90
13251;DHT22;6692;50.710;7.180;2023-06-14T08:31:59;20.60;99.90
13251;DHT22;6692;50.710;7.180;2023-06-14T08:34:00;20.80;99.90
13251;DHT22;6692;50.710;7.180;2023-06-14T08:36:02;20.80;99.90
13251;DHT22;6692;50.710;7.180;2023-06-14T08:38:03;20.70;99.90
13251;DHT22;6692;50.710;7.180;2023-06-14T08:40:04;20.80;99.90
13251;DHT22;6692;50.710;7.180;2023-06-14T08:42:05;20.90;99.90
13251;DHT22;6692;50.710;7.180;2023-06-14T08:44:06;20.80;99.90
13251;DHT22;6692;50.710;7.180;2023-06-14T08:46:07;20.90;99.90
13251;DHT22;6692;50.710;7.180;2023-06-14T08:48:08;20.90;99.90
13251;DHT22;6692;50.710;7.180;2023-06-14T08:50:10;20.90;99.90
13251;DHT22;6692;50.710;7.180;2023-06-14T08:52:11;20.90;99.90
13251;DHT22;6692;50.710;7.180;2023-06-14T08:54:11;20.90;99.90
13251;DHT22;6692;50.710;7.180;2023-06-14T08:56:12;20.90;99.90
13251;DHT22;6692;50.710;7.180;2023-06-14T08:58:13;21.00;99.90
13251;DHT22;6692;50.710;7.180;2023-06-14T09:00:14;21.00;99.90
13251;DHT22;6692;50.710;7.180;2023-06-14T09:02:15;21.00;99.90
13251;DHT22;6692;50.710;7.180;2023-06-14T09:04:15;21.00;99.90
13251;DHT22;6692;50.710;7.180;2023-06-14T09:06:16;21.00;99.90
13251;DHT22;6692;50.710;7.180;2023-06-14T09:08:17;21.00;99.90
13251;DHT22;6692;50.710;7.180;2023-06-14T09:10:18;21.00;99.90
13251;DHT22;6692;50.710;7.180;2023-06-14T09:12:18;21.00;99.90
13251;DHT22;6692;50.710;7.180;2023-06-14T09:14:19;21.00;99.90
13251;DHT22;6692;50.710;7.180;2023-06-14T09:16:20;21.00;99.90
13251;DHT22;6692;50.710;7.180;2023-06-14T09:18:20;21.00;99.90
13251;DHT22;6692;50.710;7.180;2023-06-14T09:20:21;21.10;99.90
13251;DHT22;6692;50.710;7.180;2023-06-14T09:22:22;21.10;99.90
13251;DHT22;6692;50.710;7.180;2023-06-14T09:24:23;21.20;99.90
13251;DHT22;6692;50.710;7.180;2023-06-14T09:26:25;21.20;99.90
13251;DHT22;6692;50.710;7.180;2023-06-14T09:28:27;21.20;99.90
13251;DHT22;6692;50.710;7.180;2023-06-14T09:30:27;21.20;99.90
13251;DHT22;6692;50.710;7.180;2023-06-14T09:32:28;21.20;99.90
13251;DHT22;6692;50.710;7.180;2023-06-14T09:34:28;21.30;99.90
13251;DHT22;6692;50.710;7.180;2023-06-14T09:36:31;21.30;99.90
13251;DHT22;6692;50.710;7.180;2023-06-14T09:38:31;21.30;99.90
13251;DHT22;6692;50.710;7.180;2023-06-14T09:40:33;21.30;99.90
13251;DHT22;6692;50.710;7.180;2023-06-14T09:42:32;21.40;99.90
13251;DHT22;6692;50.710;7.180;2023-06-14T09:44:33;21.40;99.90
13251;DHT22;6692;50.710;7.180;2023-06-14T09:46:34;21.40;99.90
13251;DHT22;6692;50.710;7.180;2023-06-14T09:48:34;21.40;99.90
13251;DHT22;6692;50.710;7.180;2023-06-14T09:50:35;21.50;99.90
13251;DHT22;6692;50.710;7.180;2023-06-14T09:52:36;21.50;99.90
13251;DHT22;6692;50.710;7.180;2023-06-14T09:54:39;21.50;99.90
13251;DHT22;6692;50.710;7.180;2023-06-14T09:56:37;21.60;99.90
13251;DHT22;6692;50.710;7.180;2023-06-14T09:58:38;21.60;99.90
13251;DHT22;6692;50.710;7.180;2023-06-14T10:00:39;21.60;99.90
13251;DHT22;6692;50.710;7.180;2023-06-14T10:02:39;21.60;99.90
13251;DHT22;6692;50.710;7.180;2023-06-14T10:04:41;21.60;99.90
13251;DHT22;6692;50.710;7.180;2023-06-14T10:06:41;21.60;99.90
13251;DHT22;6692;50.710;7.180;2023-06-14T10:08:42;21.70;99.90
13251;DHT22;6692;50.710;7.180;2023-06-14T10:10:43;21.70;99.90
13251;DHT22;6692;50.710;7.180;2023-06-14T10:12:44;21.70;99.90
13251;DHT22;6692;50.710;7.180;2023-06-14T10:14:44;21.70;99.90
13251;DHT22;6692;50.710;7.180;2023-06-14T10:16:48;21.70;99.90
13251;DHT22;6692;50.710;7.180;2023-06-14T10:18:49;21.80;99.90
13251;DHT22;6692;50.710;7.180;2023-06-14T10:23:13;21.80;99.90
13251;DHT22;6692;50.710;7.180;2023-06-14T10:25:13;21.80;99.90
13251;DHT22;6692;50.710;7.180;2023-06-14T10:27:13;21.90;99.90
13251;DHT22;6692;50.710;7.180;2023-06-14T10:29:14;21.90;99.90
13251;DHT22;6692;50.710;7.180;2023-06-14T10:31:15;22.00;99.90
13251;DHT22;6692;50.710;7.180;2023-06-14T10:33:16;22.00;99.90
13251;DHT22;6692;50.710;7.180;2023-06-14T10:35:17;22.00;99.90
13251;DHT22;6692;50.710;7.180;2023-06-14T10:37:17;22.10;99.90
13251;DHT22;6692;50.710;7.180;2023-06-14T10:39:18;22.20;99.90
13251;DHT22;6692;50.710;7.180;2023-06-14T10:41:19;22.20;99.90
13251;DHT22;6692;50.710;7.180;2023-06-14T10:43:21;22.20;99.90
13251;DHT22;6692;50.710;7.180;2023-06-14T10:45:21;22.20;99.90
13251;DHT22;6692;50.710;7.180;2023-06-14T10:47:24;22.30;99.90
13251;DHT22;6692;50.710;7.180;2023-06-14T10:49:43;22.40;99.90
13251;DHT22;6692;50.710;7.180;2023-06-14T10:51:43;22.60;99.90
13251;DHT22;6692;50.710;7.180;2023-06-14T10:53:47;22.60;99.90
13251;DHT22;6692;50.710;7.180;2023-06-14T10:55:47;22.60;99.90
13251;DHT22;6692;50.710;7.180;2023-06-14T10:57:48;22.60;99.90
13251;DHT22;6692;50.710;7.180;2023-06-14T10:59:48;22.60;99.90
13251;DHT22;6692;50.710;7.180;2023-06-14T11:04:10;22.60;99.90
13251;DHT22;6692;50.710;7.180;2023-06-14T11:06:13;22.50;99.90
13251;DHT22;6692;50.710;7.180;2023-06-14T11:10:39;22.60;99.90
13251;DHT22;6692;50.710;7.180;2023-06-14T11:12:38;22.60;99.90
13251;DHT22;6692;50.710;7.180;2023-06-14T11:14:40;22.70;99.90
13251;DHT22;6692;50.710;7.180;2023-06-14T11:16:40;22.60;99.90
13251;DHT22;6692;50.710;7.180;2023-06-14T11:18:41;22.70;99.90
13251;DHT22;6692;50.710;7.180;2023-06-14T11:20:42;22.70;99.90
13251;DHT22;6692;50.710;7.180;2023-06-14T11:22:43;22.70;99.90
13251;DHT22;6692;50.710;7.180;2023-06-14T11:24:43;22.80;99.90
13251;DHT22;6692;50.710;7.180;2023-06-14T11:26:45;22.80;99.90
13251;DHT22;6692;50.710;7.180;2023-06-14T11:28:45;22.90;99.90
13251;DHT22;6692;50.710;7.180;2023-06-14T11:30:45;22.80;99.90
13251;DHT22;6692;50.710;7.180;2023-06-14T11:32:47;22.90;99.90
13251;DHT22;6692;50.710;7.180;2023-06-14T11:34:49;22.90;99.90
13251;DHT22;6692;50.710;7.180;2023-06-14T11:36:49;22.90;99.90
13251;DHT22;6692;50.710;7.180;2023-06-14T11:38:57;22.90;99.90
13251;DHT22;6692;50.710;7.180;2023-06-14T11:40:51;22.90;99.90
13251;DHT22;6692;50.710;7.180;2023-06-14T11:42:58;22.90;99.90
13251;DHT22;6692;50.710;7.180;2023-06-14T11:44:59;22.90;99.90
13251;DHT22;6692;50.710;7.180;2023-06-14T11:47:03;22.90;99.90
13251;DHT22;6692;50.710;7.180;2023-06-14T11:49:02;22.90;99.90
13251;DHT22;6692;50.710;7.180;2023-06-14T11:51:03;22.90;99.90
13251;DHT22;6692;50.710;7.180;2023-06-14T11:53:04;23.00;99.90
13251;DHT22;6692;50.710;7.180;2023-06-14T11:55:05;23.00;99.90
13251;DHT22;6692;50.710;7.180;2023-06-14T11:57:07;23.00;99.90
13251;DHT22;6692;50.710;7.180;2023-06-14T11:59:07;23.00;99.90
13251;DHT22;6692;50.710;7.180;2023-06-14T12:01:08;23.00;99.90
13251;DHT22;6692;50.710;7.180;2023-06-14T12:03:09;23.00;99.90
13251;DHT22;6692;50.710;7.180;2023-06-14T12:05:10;23.00;99.90
13251;DHT22;6692;50.710;7.180;2023-06-14T12:07:15;23.00;99.90
13251;DHT22;6692;50.710;7.180;2023-06-14T12:09:17;23.00;99.90
13251;DHT22;6692;50.710;7.180;2023-06-14T12:11:17;23.10;99.90
13251;DHT22;6692;50.710;7.180;2023-06-14T12:13:18;23.10;99.90
13251;DHT22;6692;50.710;7.180;2023-06-14T12:15:19;23.10;99.90
13251;DHT22;6692;50.710;7.180;2023-06-14T12:17:20;23.10;99.90
13251;DHT22;6692;50.710;7.180;2023-06-14T12:19:21;23.10;99.90
13251;DHT22;6692;50.710;7.180;2023-06-14T12:21:22;23.20;99.90
13251;DHT22;6692;50.710;7.180;2023-06-14T12:23:23;23.20;99.90
13251;DHT22;6692;50.710;7.180;2023-06-14T12:25:28;23.30;99.90
13251;DHT22;6692;50.710;7.180;2023-06-14T12:27:27;23.60;99.90
13251;DHT22;6692;50.710;7.180;2023-06-14T12:29:29;24.90;99.90
13251;DHT22;6692;50.710;7.180;2023-06-14T12:31:30;24.90;99.90
13251;DHT22;6692;50.710;7.180;2023-06-14T12:33:30;25.80;99.90
13251;DHT22;6692;50.710;7.180;2023-06-14T12:35:31;26.80;99.90
13251;DHT22;6692;50.710;7.180;2023-06-14T12:37:32;27.70;99.90
13251;DHT22;6692;50.710;7.180;2023-06-14T12:39:32;28.10;99.90
13251;DHT22;6692;50.710;7.180;2023-06-14T12:41:33;28.70;99.90
13251;DHT22;6692;50.710;7.180;2023-06-14T12:43:34;29.40;99.90
13251;DHT22;6692;50.710;7.180;2023-06-14T12:45:35;30.90;99.90
13251;DHT22;6692;50.710;7.180;2023-06-14T12:47:36;30.80;99.90
13251;DHT22;6692;50.710;7.180;2023-06-14T12:49:37;31.30;99.90
13251;DHT22;6692;50.710;7.180;2023-06-14T12:51:38;31.20;99.70
13251;DHT22;6692;50.710;7.180;2023-06-14T12:53:38;31.20;98.70
13251;DHT22;6692;50.710;7.180;2023-06-14T12:55:39;30.90;99.10
13251;DHT22;6692;50.710;7.180;2023-06-14T12:57:40;30.60;97.30
13251;DHT22;6692;50.710;7.180;2023-06-14T12:59:40;30.30;97.80
13251;DHT22;6692;50.710;7.180;2023-06-14T13:01:41;30.00;97.50
13251;DHT22;6692;50.710;7.180;2023-06-14T13:03:43;30.50;98.00